sensor_id;sensor_type;location;lat;lon;timestamp;P1;durP1;ratioP1;P2;durP2;ratioP2
73452;SDS011;61687;56.232;43.854;2024-03-07T00:00:05;11.57;;;4.37;;
73452;SDS011;61687;56.232;43.854;2024-03-07T00:02:41;12.38;;;5.13;;
73452;SDS011;61687;56.232;43.854;2024-03-07T00:05:08;12.13;;;5.72;;
73452;SDS011;61687;56.232;43.854;2024-03-07T00:07:34;12.38;;;5.47;;
73452;SDS011;61687;56.232;43.854;2024-03-07T00:10:01;14.90;;;5.95;;
73452;SDS011;61687;56.232;43.854;2024-03-07T00:12:30;12.10;;;5.23;;
73452;SDS011;61687;56.232;43.854;2024-03-07T00:14:57;10.68;;;4.93;;
73452;SDS011;61687;56.232;43.854;2024-03-07T00:17:23;11.52;;;5.60;;
73452;SDS011;61687;56.232;43.854;2024-03-07T00:19:49;9.68;;;4.80;;
73452;SDS011;61687;56.232;43.854;2024-03-07T00:22:15;11.17;;;4.90;;
73452;SDS011;61687;56.232;43.854;2024-03-07T00:24:41;10.10;;;5.43;;
73452;SDS011;61687;56.232;43.854;2024-03-07T00:27:08;13.68;;;6.18;;
73452;SDS011;61687;56.232;43.854;2024-03-07T00:29:34;14.98;;;5.68;;
73452;SDS011;61687;56.232;43.854;2024-03-07T00:32:04;17.43;;;5.73;;
73452;SDS011;61687;56.232;43.854;2024-03-07T00:34:30;9.95;;;5.05;;
73452;SDS011;61687;56.232;43.854;2024-03-07T00:36:56;14.60;;;5.50;;
73452;SDS011;61687;56.232;43.854;2024-03-07T00:39:25;13.02;;;5.55;;
73452;SDS011;61687;56.232;43.854;2024-03-07T00:41:51;11.55;;;5.85;;
73452;SDS011;61687;56.232;43.854;2024-03-07T00:44:17;10.37;;;5.40;;
73452;SDS011;61687;56.232;43.854;2024-03-07T00:46:43;10.57;;;5.72;;
73452;SDS011;61687;56.232;43.854;2024-03-07T00:49:08;15.45;;;5.65;;
73452;SDS011;61687;56.232;43.854;2024-03-07T00:51:34;13.53;;;5.27;;
73452;SDS011;61687;56.232;43.854;2024-03-07T00:54:00;15.50;;;5.82;;
73452;SDS011;61687;56.232;43.854;2024-03-07T00:56:26;14.35;;;5.22;;
73452;SDS011;61687;56.232;43.854;2024-03-07T00:58:54;11.00;;;4.93;;
73452;SDS011;61687;56.232;43.854;2024-03-07T01:01:20;11.98;;;5.45;;
73452;SDS011;61687;56.232;43.854;2024-03-07T01:03:46;12.00;;;5.25;;
73452;SDS011;61687;56.232;43.854;2024-03-07T01:06:12;12.47;;;5.47;;
73452;SDS011;61687;56.232;43.854;2024-03-07T01:08:38;12.73;;;5.40;;
73452;SDS011;61687;56.232;43.854;2024-03-07T01:11:05;13.40;;;5.15;;
73452;SDS011;61687;56.232;43.854;2024-03-07T01:13:38;10.10;;;4.95;;
73452;SDS011;61687;56.232;43.854;2024-03-07T01:16:05;12.45;;;4.45;;
73452;SDS011;61687;56.232;43.854;2024-03-07T01:18:32;9.33;;;5.30;;
73452;SDS011;61687;56.232;43.854;2024-03-07T01:21:01;12.23;;;5.78;;
73452;SDS011;61687;56.232;43.854;2024-03-07T01:23:27;12.30;;;4.78;;
73452;SDS011;61687;56.232;43.854;2024-03-07T01:25:56;11.38;;;5.05;;
73452;SDS011;61687;56.232;43.854;2024-03-07T01:28:26;16.35;;;4.88;;
73452;SDS011;61687;56.232;43.854;2024-03-07T01:30:56;12.23;;;4.73;;
73452;SDS011;61687;56.232;43.854;2024-03-07T01:33:24;10.43;;;4.70;;
73452;SDS011;61687;56.232;43.854;2024-03-07T01:35:50;10.40;;;4.80;;
73452;SDS011;61687;56.232;43.854;2024-03-07T01:38:16;15.18;;;5.40;;
73452;SDS011;61687;56.232;43.854;2024-03-07T01:40:42;12.73;;;4.85;;
73452;SDS011;61687;56.232;43.854;2024-03-07T01:43:09;10.50;;;4.90;;
73452;SDS011;61687;56.232;43.854;2024-03-07T01:45:36;14.10;;;4.95;;
73452;SDS011;61687;56.232;43.854;2024-03-07T01:48:06;9.55;;;5.20;;
73452;SDS011;61687;56.232;43.854;2024-03-07T01:50:37;9.73;;;4.80;;
73452;SDS011;61687;56.232;43.854;2024-03-07T01:53:04;18.08;;;5.00;;
73452;SDS011;61687;56.232;43.854;2024-03-07T01:55:32;10.63;;;5.53;;
73452;SDS011;61687;56.232;43.854;2024-03-07T01:57:59;10.45;;;4.93;;
73452;SDS011;61687;56.232;43.854;2024-03-07T02:00:28;12.18;;;4.63;;
73452;SDS011;61687;56.232;43.854;2024-03-07T02:02:54;16.45;;;5.82;;
73452;SDS011;61687;56.232;43.854;2024-03-07T02:05:20;14.10;;;6.43;;
73452;SDS011;61687;56.232;43.854;2024-03-07T02:07:47;12.90;;;5.55;;
73452;SDS011;61687;56.232;43.854;2024-03-07T02:10:13;13.23;;;5.95;;
73452;SDS011;61687;56.232;43.854;2024-03-07T02:12:40;12.75;;;5.63;;
73452;SDS011;61687;56.232;43.854;2024-03-07T02:15:06;13.82;;;6.32;;
73452;SDS011;61687;56.232;43.854;2024-03-07T02:17:33;13.10;;;5.90;;
73452;SDS011;61687;56.232;43.854;2024-03-07T02:20:01;10.55;;;4.95;;
73452;SDS011;61687;56.232;43.854;2024-03-07T02:22:30;12.82;;;4.90;;
73452;SDS011;61687;56.232;43.854;2024-03-07T02:24:56;13.90;;;5.53;;
73452;SDS011;61687;56.232;43.854;2024-03-07T02:27:22;13.73;;;4.63;;
73452;SDS011;61687;56.232;43.854;2024-03-07T02:29:48;14.85;;;5.65;;
73452;SDS011;61687;56.232;43.854;2024-03-07T02:32:14;12.63;;;5.07;;
73452;SDS011;61687;56.232;43.854;2024-03-07T02:34:40;9.90;;;5.00;;
73452;SDS011;61687;56.232;43.854;2024-03-07T02:37:06;9.45;;;4.90;;
73452;SDS011;61687;56.232;43.854;2024-03-07T02:39:35;9.07;;;5.20;;
73452;SDS011;61687;56.232;43.854;2024-03-07T02:42:04;11.70;;;4.95;;
73452;SDS011;61687;56.232;43.854;2024-03-07T02:44:30;8.82;;;4.95;;
73452;SDS011;61687;56.232;43.854;2024-03-07T02:46:57;11.80;;;4.67;;
73452;SDS011;61687;56.232;43.854;2024-03-07T02:49:23;15.02;;;5.32;;
73452;SDS011;61687;56.232;43.854;2024-03-07T02:51:49;12.38;;;5.05;;
73452;SDS011;61687;56.232;43.854;2024-03-07T02:54:15;16.42;;;5.30;;
73452;SDS011;61687;56.232;43.854;2024-03-07T02:56:41;10.95;;;4.97;;
73452;SDS011;61687;56.232;43.854;2024-03-07T02:59:07;9.93;;;5.13;;
73452;SDS011;61687;56.232;43.854;2024-03-07T03:01:33;10.55;;;4.93;;
73452;SDS011;61687;56.232;43.854;2024-03-07T03:03:59;13.80;;;4.60;;
73452;SDS011;61687;56.232;43.854;2024-03-07T03:06:25;10.63;;;4.60;;
73452;SDS011;61687;56.232;43.854;2024-03-07T03:08:50;10.73;;;4.78;;
73452;SDS011;61687;56.232;43.854;2024-03-07T03:11:20;13.40;;;4.60;;
73452;SDS011;61687;56.232;43.854;2024-03-07T03:13:46;13.32;;;4.95;;
73452;SDS011;61687;56.232;43.854;2024-03-07T03:16:14;10.98;;;5.07;;
73452;SDS011;61687;56.232;43.854;2024-03-07T03:18:40;10.75;;;4.93;;
73452;SDS011;61687;56.232;43.854;2024-03-07T03:21:06;12.47;;;4.97;;
73452;SDS011;61687;56.232;43.854;2024-03-07T03:23:33;17.25;;;4.97;;
73452;SDS011;61687;56.232;43.854;2024-03-07T03:26:00;9.57;;;4.15;;
73452;SDS011;61687;56.232;43.854;2024-03-07T03:28:25;9.27;;;3.83;;
73452;SDS011;61687;56.232;43.854;2024-03-07T03:30:51;9.50;;;4.37;;
73452;SDS011;61687;56.232;43.854;2024-03-07T03:33:18;8.15;;;4.13;;
73452;SDS011;61687;56.232;43.854;2024-03-07T03:35:46;11.05;;;4.75;;
73452;SDS011;61687;56.232;43.854;2024-03-07T03:38:13;13.73;;;5.03;;
73452;SDS011;61687;56.232;43.854;2024-03-07T03:40:39;13.13;;;4.10;;
73452;SDS011;61687;56.232;43.854;2024-03-07T03:43:05;9.77;;;4.68;;
73452;SDS011;61687;56.232;43.854;2024-03-07T03:45:31;12.13;;;4.82;;
73452;SDS011;61687;56.232;43.854;2024-03-07T03:48:00;10.95;;;5.15;;
73452;SDS011;61687;56.232;43.854;2024-03-07T03:50:26;10.48;;;4.38;;
73452;SDS011;61687;56.232;43.854;2024-03-07T03:52:53;11.90;;;4.90;;
73452;SDS011;61687;56.232;43.854;2024-03-07T03:55:20;14.23;;;6.07;;
73452;SDS011;61687;56.232;43.854;2024-03-07T03:57:47;13.27;;;5.57;;
73452;SDS011;61687;56.232;43.854;2024-03-07T04:00:14;12.52;;;6.05;;
73452;SDS011;61687;56.232;43.854;2024-03-07T04:02:45;17.90;;;5.80;;
73452;SDS011;61687;56.232;43.854;2024-03-07T04:05:15;11.25;;;5.15;;
73452;SDS011;61687;56.232;43.854;2024-03-07T04:07:42;13.70;;;5.60;;
73452;SDS011;61687;56.232;43.854;2024-03-07T04:10:09;11.10;;;5.63;;
73452;SDS011;61687;56.232;43.854;2024-03-07T04:12:37;9.38;;;4.85;;
73452;SDS011;61687;56.232;43.854;2024-03-07T04:15:06;14.10;;;4.90;;
73452;SDS011;61687;56.232;43.854;2024-03-07T04:17:34;13.20;;;5.68;;
73452;SDS011;61687;56.232;43.854;2024-03-07T04:20:01;11.50;;;4.88;;
73452;SDS011;61687;56.232;43.854;2024-03-07T04:22:31;11.02;;;5.20;;
73452;SDS011;61687;56.232;43.854;2024-03-07T04:24:58;13.55;;;5.60;;
73452;SDS011;61687;56.232;43.854;2024-03-07T04:27:24;13.93;;;5.23;;
73452;SDS011;61687;56.232;43.854;2024-03-07T04:29:51;12.50;;;5.22;;
73452;SDS011;61687;56.232;43.854;2024-03-07T04:32:17;14.75;;;5.57;;
73452;SDS011;61687;56.232;43.854;2024-03-07T04:34:43;11.73;;;5.22;;
73452;SDS011;61687;56.232;43.854;2024-03-07T04:37:10;13.02;;;5.40;;
73452;SDS011;61687;56.232;43.854;2024-03-07T04:39:37;15.47;;;5.40;;
73452;SDS011;61687;56.232;43.854;2024-03-07T04:42:04;8.38;;;4.10;;
73452;SDS011;61687;56.232;43.854;2024-03-07T04:44:32;14.23;;;5.57;;
73452;SDS011;61687;56.232;43.854;2024-03-07T04:47:01;11.90;;;5.10;;
73452;SDS011;61687;56.232;43.854;2024-03-07T04:49:30;13.65;;;5.60;;
73452;SDS011;61687;56.232;43.854;2024-03-07T04:51:57;14.67;;;5.60;;
73452;SDS011;61687;56.232;43.854;2024-03-07T04:54:25;20.35;;;5.80;;
73452;SDS011;61687;56.232;43.854;2024-03-07T04:56:52;13.60;;;5.20;;
73452;SDS011;61687;56.232;43.854;2024-03-07T04:59:19;13.25;;;5.47;;
73452;SDS011;61687;56.232;43.854;2024-03-07T05:01:46;12.00;;;5.60;;
73452;SDS011;61687;56.232;43.854;2024-03-07T05:04:14;23.73;;;5.80;;
73452;SDS011;61687;56.232;43.854;2024-03-07T05:06:40;14.80;;;5.13;;
73452;SDS011;61687;56.232;43.854;2024-03-07T05:09:07;14.88;;;6.10;;
73452;SDS011;61687;56.232;43.854;2024-03-07T05:11:36;18.48;;;5.55;;
73452;SDS011;61687;56.232;43.854;2024-03-07T05:14:02;16.25;;;5.43;;
73452;SDS011;61687;56.232;43.854;2024-03-07T05:16:29;19.90;;;5.83;;
73452;SDS011;61687;56.232;43.854;2024-03-07T05:18:57;13.05;;;5.78;;
73452;SDS011;61687;56.232;43.854;2024-03-07T05:21:26;31.45;;;6.60;;
73452;SDS011;61687;56.232;43.854;2024-03-07T05:23:59;16.05;;;6.00;;
73452;SDS011;61687;56.232;43.854;2024-03-07T05:26:25;11.23;;;5.18;;
73452;SDS011;61687;56.232;43.854;2024-03-07T05:28:52;12.37;;;5.00;;
73452;SDS011;61687;56.232;43.854;2024-03-07T05:31:20;16.65;;;5.43;;
73452;SDS011;61687;56.232;43.854;2024-03-07T05:33:47;13.07;;;5.70;;
73452;SDS011;61687;56.232;43.854;2024-03-07T05:36:13;14.77;;;5.40;;
73452;SDS011;61687;56.232;43.854;2024-03-07T05:38:41;15.70;;;5.53;;
73452;SDS011;61687;56.232;43.854;2024-03-07T05:41:12;19.10;;;5.53;;
73452;SDS011;61687;56.232;43.854;2024-03-07T05:43:38;12.48;;;5.40;;
73452;SDS011;61687;56.232;43.854;2024-03-07T05:46:05;11.55;;;6.20;;
73452;SDS011;61687;56.232;43.854;2024-03-07T05:48:33;12.20;;;4.95;;
73452;SDS011;61687;56.232;43.854;2024-03-07T05:50:59;10.90;;;5.40;;
73452;SDS011;61687;56.232;43.854;2024-03-07T05:53:25;13.03;;;5.53;;
73452;SDS011;61687;56.232;43.854;2024-03-07T05:55:51;9.63;;;5.53;;
73452;SDS011;61687;56.232;43.854;2024-03-07T05:58:17;17.50;;;5.60;;
73452;SDS011;61687;56.232;43.854;2024-03-07T06:00:48;16.50;;;6.03;;
73452;SDS011;61687;56.232;43.854;2024-03-07T06:03:17;17.47;;;6.73;;
73452;SDS011;61687;56.232;43.854;2024-03-07T06:05:47;18.38;;;6.28;;
73452;SDS011;61687;56.232;43.854;2024-03-07T06:08:14;19.35;;;5.63;;
73452;SDS011;61687;56.232;43.854;2024-03-07T06:10:44;13.85;;;6.35;;
73452;SDS011;61687;56.232;43.854;2024-03-07T06:13:10;14.27;;;6.22;;
73452;SDS011;61687;56.232;43.854;2024-03-07T06:15:44;14.97;;;5.87;;
73452;SDS011;61687;56.232;43.854;2024-03-07T06:18:11;10.82;;;5.45;;
73452;SDS011;61687;56.232;43.854;2024-03-07T06:20:42;10.20;;;5.90;;
73452;SDS011;61687;56.232;43.854;2024-03-07T06:23:09;8.35;;;5.00;;
73452;SDS011;61687;56.232;43.854;2024-03-07T06:25:37;15.95;;;6.05;;
73452;SDS011;61687;56.232;43.854;2024-03-07T06:28:13;11.43;;;5.90;;
73452;SDS011;61687;56.232;43.854;2024-03-07T06:30:40;11.27;;;5.25;;
73452;SDS011;61687;56.232;43.854;2024-03-07T06:33:08;10.90;;;5.70;;
73452;SDS011;61687;56.232;43.854;2024-03-07T06:35:35;14.32;;;5.68;;
73452;SDS011;61687;56.232;43.854;2024-03-07T06:38:11;11.27;;;4.85;;
73452;SDS011;61687;56.232;43.854;2024-03-07T06:40:38;10.85;;;4.60;;
73452;SDS011;61687;56.232;43.854;2024-03-07T06:43:08;10.15;;;5.80;;
73452;SDS011;61687;56.232;43.854;2024-03-07T06:45:38;12.38;;;5.07;;
73452;SDS011;61687;56.232;43.854;2024-03-07T06:48:05;10.25;;;4.95;;
73452;SDS011;61687;56.232;43.854;2024-03-07T06:50:35;18.35;;;5.22;;
73452;SDS011;61687;56.232;43.854;2024-03-07T06:53:02;15.30;;;5.28;;
73452;SDS011;61687;56.232;43.854;2024-03-07T06:55:29;12.13;;;4.70;;
73452;SDS011;61687;56.232;43.854;2024-03-07T06:57:55;11.52;;;4.18;;
73452;SDS011;61687;56.232;43.854;2024-03-07T07:00:21;13.13;;;4.03;;
73452;SDS011;61687;56.232;43.854;2024-03-07T07:02:47;9.80;;;4.53;;
73452;SDS011;61687;56.232;43.854;2024-03-07T07:05:14;11.13;;;4.55;;
73452;SDS011;61687;56.232;43.854;2024-03-07T07:07:44;11.07;;;4.32;;
73452;SDS011;61687;56.232;43.854;2024-03-07T07:10:11;8.90;;;4.53;;
73452;SDS011;61687;56.232;43.854;2024-03-07T07:12:45;14.13;;;5.70;;
73452;SDS011;61687;56.232;43.854;2024-03-07T07:15:13;8.93;;;4.20;;
73452;SDS011;61687;56.232;43.854;2024-03-07T07:17:41;11.25;;;5.03;;
73452;SDS011;61687;56.232;43.854;2024-03-07T07:20:13;11.73;;;4.72;;
73452;SDS011;61687;56.232;43.854;2024-03-07T07:22:41;9.55;;;4.97;;
73452;SDS011;61687;56.232;43.854;2024-03-07T07:25:07;9.50;;;3.75;;
73452;SDS011;61687;56.232;43.854;2024-03-07T07:27:40;10.40;;;5.90;;
73452;SDS011;61687;56.232;43.854;2024-03-07T07:30:09;12.75;;;4.50;;
73452;SDS011;61687;56.232;43.854;2024-03-07T07:32:39;12.07;;;4.80;;
73452;SDS011;61687;56.232;43.854;2024-03-07T07:35:05;11.88;;;5.43;;
73452;SDS011;61687;56.232;43.854;2024-03-07T07:37:40;10.82;;;5.25;;
73452;SDS011;61687;56.232;43.854;2024-03-07T07:40:07;12.27;;;5.00;;
73452;SDS011;61687;56.232;43.854;2024-03-07T07:42:37;19.17;;;5.35;;
73452;SDS011;61687;56.232;43.854;2024-03-07T07:45:10;11.48;;;4.32;;
73452;SDS011;61687;56.232;43.854;2024-03-07T07:47:38;11.30;;;3.97;;
73452;SDS011;61687;56.232;43.854;2024-03-07T07:50:07;11.38;;;5.10;;
73452;SDS011;61687;56.232;43.854;2024-03-07T07:52:44;9.20;;;5.03;;
73452;SDS011;61687;56.232;43.854;2024-03-07T07:55:13;8.35;;;4.82;;
73452;SDS011;61687;56.232;43.854;2024-03-07T07:57:41;11.68;;;4.75;;
73452;SDS011;61687;56.232;43.854;2024-03-07T08:00:09;10.07;;;4.47;;
73452;SDS011;61687;56.232;43.854;2024-03-07T08:02:54;11.65;;;4.72;;
73452;SDS011;61687;56.232;43.854;2024-03-07T08:05:21;7.47;;;3.92;;
73452;SDS011;61687;56.232;43.854;2024-03-07T08:07:51;8.48;;;4.60;;
73452;SDS011;61687;56.232;43.854;2024-03-07T08:10:18;8.02;;;4.72;;
73452;SDS011;61687;56.232;43.854;2024-03-07T08:12:46;7.57;;;3.70;;
73452;SDS011;61687;56.232;43.854;2024-03-07T08:15:12;9.20;;;4.75;;
73452;SDS011;61687;56.232;43.854;2024-03-07T08:17:45;8.70;;;4.50;;
73452;SDS011;61687;56.232;43.854;2024-03-07T08:20:13;9.30;;;3.95;;
73452;SDS011;61687;56.232;43.854;2024-03-07T08:22:44;9.77;;;5.18;;
73452;SDS011;61687;56.232;43.854;2024-03-07T08:25:11;12.55;;;4.93;;
73452;SDS011;61687;56.232;43.854;2024-03-07T08:27:38;7.85;;;4.10;;
73452;SDS011;61687;56.232;43.854;2024-03-07T08:30:08;11.52;;;5.03;;
73452;SDS011;61687;56.232;43.854;2024-03-07T08:32:41;13.13;;;6.72;;
73452;SDS011;61687;56.232;43.854;2024-03-07T08:35:09;11.52;;;5.45;;
73452;SDS011;61687;56.232;43.854;2024-03-07T08:37:44;10.05;;;4.72;;
73452;SDS011;61687;56.232;43.854;2024-03-07T08:40:11;10.15;;;5.15;;
73452;SDS011;61687;56.232;43.854;2024-03-07T08:42:48;9.95;;;4.90;;
73452;SDS011;61687;56.232;43.854;2024-03-07T08:45:16;10.23;;;4.65;;
73452;SDS011;61687;56.232;43.854;2024-03-07T08:47:45;10.35;;;5.15;;
73452;SDS011;61687;56.232;43.854;2024-03-07T08:50:12;8.77;;;4.60;;
73452;SDS011;61687;56.232;43.854;2024-03-07T08:52:39;8.82;;;4.45;;
73452;SDS011;61687;56.232;43.854;2024-03-07T08:55:06;8.63;;;4.35;;
73452;SDS011;61687;56.232;43.854;2024-03-07T08:57:40;8.30;;;4.60;;
73452;SDS011;61687;56.232;43.854;2024-03-07T09:00:07;10.75;;;3.80;;
73452;SDS011;61687;56.232;43.854;2024-03-07T09:02:37;10.05;;;5.07;;
73452;SDS011;61687;56.232;43.854;2024-03-07T09:05:04;11.07;;;4.93;;
73452;SDS011;61687;56.232;43.854;2024-03-07T09:07:31;11.10;;;5.57;;
73452;SDS011;61687;56.232;43.854;2024-03-07T09:09:58;14.07;;;5.85;;
73452;SDS011;61687;56.232;43.854;2024-03-07T09:12:24;11.63;;;5.65;;
73452;SDS011;61687;56.232;43.854;2024-03-07T09:14:51;12.18;;;5.25;;
73452;SDS011;61687;56.232;43.854;2024-03-07T09:17:21;8.90;;;5.07;;
73452;SDS011;61687;56.232;43.854;2024-03-07T09:19:47;10.07;;;4.97;;
73452;SDS011;61687;56.232;43.854;2024-03-07T09:22:13;10.85;;;4.80;;
73452;SDS011;61687;56.232;43.854;2024-03-07T09:24:39;10.63;;;4.57;;
73452;SDS011;61687;56.232;43.854;2024-03-07T09:27:05;9.30;;;4.07;;
73452;SDS011;61687;56.232;43.854;2024-03-07T09:29:32;9.38;;;4.53;;
73452;SDS011;61687;56.232;43.854;2024-03-07T09:31:57;11.57;;;4.83;;
73452;SDS011;61687;56.232;43.854;2024-03-07T09:34:24;7.68;;;4.35;;
73452;SDS011;61687;56.232;43.854;2024-03-07T09:36:51;7.97;;;4.53;;
73452;SDS011;61687;56.232;43.854;2024-03-07T09:39:17;14.00;;;4.13;;
73452;SDS011;61687;56.232;43.854;2024-03-07T09:41:44;10.73;;;4.28;;
73452;SDS011;61687;56.232;43.854;2024-03-07T09:44:14;9.65;;;4.70;;
73452;SDS011;61687;56.232;43.854;2024-03-07T09:46:48;7.50;;;3.40;;
73452;SDS011;61687;56.232;43.854;2024-03-07T09:49:16;9.93;;;4.18;;
73452;SDS011;61687;56.232;43.854;2024-03-07T09:51:43;7.87;;;3.13;;
73452;SDS011;61687;56.232;43.854;2024-03-07T09:54:10;6.80;;;3.28;;
73452;SDS011;61687;56.232;43.854;2024-03-07T09:56:36;9.30;;;4.25;;
73452;SDS011;61687;56.232;43.854;2024-03-07T09:59:05;6.32;;;3.00;;
73452;SDS011;61687;56.232;43.854;2024-03-07T10:01:37;5.80;;;3.22;;
73452;SDS011;61687;56.232;43.854;2024-03-07T10:04:05;6.97;;;3.20;;
73452;SDS011;61687;56.232;43.854;2024-03-07T10:06:37;6.68;;;3.13;;
73452;SDS011;61687;56.232;43.854;2024-03-07T10:09:09;8.13;;;4.43;;
73452;SDS011;61687;56.232;43.854;2024-03-07T10:11:39;8.45;;;3.60;;
73452;SDS011;61687;56.232;43.854;2024-03-07T10:14:08;5.35;;;3.45;;
73452;SDS011;61687;56.232;43.854;2024-03-07T10:16:36;5.47;;;2.70;;
73452;SDS011;61687;56.232;43.854;2024-03-07T10:19:05;9.68;;;3.13;;
73452;SDS011;61687;56.232;43.854;2024-03-07T10:21:33;5.60;;;3.35;;
73452;SDS011;61687;56.232;43.854;2024-03-07T10:24:05;5.57;;;2.67;;
73452;SDS011;61687;56.232;43.854;2024-03-07T10:26:35;6.47;;;3.10;;
73452;SDS011;61687;56.232;43.854;2024-03-07T10:29:02;7.30;;;3.53;;
73452;SDS011;61687;56.232;43.854;2024-03-07T10:31:29;9.95;;;4.43;;
73452;SDS011;61687;56.232;43.854;2024-03-07T10:34:00;10.70;;;4.53;;
73452;SDS011;61687;56.232;43.854;2024-03-07T10:36:30;10.55;;;4.32;;
73452;SDS011;61687;56.232;43.854;2024-03-07T10:39:00;11.23;;;3.97;;
73452;SDS011;61687;56.232;43.854;2024-03-07T10:41:47;9.97;;;4.37;;
73452;SDS011;61687;56.232;43.854;2024-03-07T10:44:24;9.80;;;4.22;;
73452;SDS011;61687;56.232;43.854;2024-03-07T10:46:51;13.65;;;4.72;;
73452;SDS011;61687;56.232;43.854;2024-03-07T10:49:19;6.85;;;3.33;;
73452;SDS011;61687;56.232;43.854;2024-03-07T10:51:54;8.60;;;4.05;;
73452;SDS011;61687;56.232;43.854;2024-03-07T10:57:21;9.35;;;4.07;;
73452;SDS011;61687;56.232;43.854;2024-03-07T10:59:56;8.45;;;3.85;;
73452;SDS011;61687;56.232;43.854;2024-03-07T11:05:02;7.50;;;4.05;;
73452;SDS011;61687;56.232;43.854;2024-03-07T11:07:33;11.63;;;4.67;;
73452;SDS011;61687;56.232;43.854;2024-03-07T11:10:00;13.40;;;4.70;;
73452;SDS011;61687;56.232;43.854;2024-03-07T11:12:29;9.15;;;4.50;;
73452;SDS011;61687;56.232;43.854;2024-03-07T11:14:56;11.20;;;4.25;;
73452;SDS011;61687;56.232;43.854;2024-03-07T11:17:23;9.82;;;4.55;;
73452;SDS011;61687;56.232;43.854;2024-03-07T11:19:50;13.53;;;3.80;;
73452;SDS011;61687;56.232;43.854;2024-03-07T11:22:31;9.05;;;3.63;;
73452;SDS011;61687;56.232;43.854;2024-03-07T11:25:03;9.02;;;3.88;;
73452;SDS011;61687;56.232;43.854;2024-03-07T11:27:36;8.75;;;4.13;;
73452;SDS011;61687;56.232;43.854;2024-03-07T11:30:05;6.80;;;3.80;;
73452;SDS011;61687;56.232;43.854;2024-03-07T11:32:39;9.57;;;3.30;;
73452;SDS011;61687;56.232;43.854;2024-03-07T11:35:12;9.50;;;3.70;;
73452;SDS011;61687;56.232;43.854;2024-03-07T11:37:47;9.63;;;4.68;;
73452;SDS011;61687;56.232;43.854;2024-03-07T11:42:47;12.15;;;4.20;;
73452;SDS011;61687;56.232;43.854;2024-03-07T11:45:16;6.73;;;3.43;;
73452;SDS011;61687;56.232;43.854;2024-03-07T11:47:59;8.68;;;4.03;;
73452;SDS011;61687;56.232;43.854;2024-03-07T11:50:26;7.85;;;4.18;;
73452;SDS011;61687;56.232;43.854;2024-03-07T11:52:53;6.88;;;3.28;;
73452;SDS011;61687;56.232;43.854;2024-03-07T11:55:21;9.15;;;3.67;;
73452;SDS011;61687;56.232;43.854;2024-03-07T11:57:50;7.87;;;3.90;;
73452;SDS011;61687;56.232;43.854;2024-03-07T12:00:18;8.25;;;4.25;;
73452;SDS011;61687;56.232;43.854;2024-03-07T12:02:45;9.60;;;4.97;;
73452;SDS011;61687;56.232;43.854;2024-03-07T12:05:14;9.73;;;4.75;;
73452;SDS011;61687;56.232;43.854;2024-03-07T12:07:42;6.93;;;3.95;;
73452;SDS011;61687;56.232;43.854;2024-03-07T12:10:09;9.67;;;3.30;;
73452;SDS011;61687;56.232;43.854;2024-03-07T12:12:36;9.68;;;4.00;;
73452;SDS011;61687;56.232;43.854;2024-03-07T12:15:08;7.68;;;3.60;;
73452;SDS011;61687;56.232;43.854;2024-03-07T12:17:54;8.52;;;4.13;;
73452;SDS011;61687;56.232;43.854;2024-03-07T12:20:21;10.98;;;3.70;;
73452;SDS011;61687;56.232;43.854;2024-03-07T12:23:02;10.17;;;3.70;;
73452;SDS011;61687;56.232;43.854;2024-03-07T12:25:31;8.65;;;3.90;;
73452;SDS011;61687;56.232;43.854;2024-03-07T12:30:31;9.23;;;4.65;;
73452;SDS011;61687;56.232;43.854;2024-03-07T12:33:01;9.43;;;4.63;;
73452;SDS011;61687;56.232;43.854;2024-03-07T12:35:32;10.87;;;4.90;;
73452;SDS011;61687;56.232;43.854;2024-03-07T12:37:59;9.95;;;4.47;;
73452;SDS011;61687;56.232;43.854;2024-03-07T12:40:26;11.15;;;4.95;;
73452;SDS011;61687;56.232;43.854;2024-03-07T12:42:55;10.77;;;4.10;;
73452;SDS011;61687;56.232;43.854;2024-03-07T12:45:21;9.30;;;5.07;;
73452;SDS011;61687;56.232;43.854;2024-03-07T12:47:47;9.00;;;4.80;;
73452;SDS011;61687;56.232;43.854;2024-03-07T12:50:18;10.00;;;4.68;;
73452;SDS011;61687;56.232;43.854;2024-03-07T12:52:47;9.55;;;4.78;;
73452;SDS011;61687;56.232;43.854;2024-03-07T12:55:18;13.85;;;5.32;;
73452;SDS011;61687;56.232;43.854;2024-03-07T12:57:44;8.53;;;3.90;;
73452;SDS011;61687;56.232;43.854;2024-03-07T13:00:11;8.88;;;4.57;;
73452;SDS011;61687;56.232;43.854;2024-03-07T13:02:45;8.75;;;4.75;;
73452;SDS011;61687;56.232;43.854;2024-03-07T13:05:12;10.68;;;4.53;;
73452;SDS011;61687;56.232;43.854;2024-03-07T13:07:47;8.75;;;4.28;;
73452;SDS011;61687;56.232;43.854;2024-03-07T13:10:14;12.63;;;3.73;;
73452;SDS011;61687;56.232;43.854;2024-03-07T13:12:42;9.27;;;4.68;;
73452;SDS011;61687;56.232;43.854;2024-03-07T13:15:10;8.05;;;4.45;;
73452;SDS011;61687;56.232;43.854;2024-03-07T13:17:37;8.18;;;4.38;;
73452;SDS011;61687;56.232;43.854;2024-03-07T13:20:03;10.52;;;4.63;;
73452;SDS011;61687;56.232;43.854;2024-03-07T13:22:37;10.00;;;4.90;;
73452;SDS011;61687;56.232;43.854;2024-03-07T13:25:04;10.68;;;4.72;;
73452;SDS011;61687;56.232;43.854;2024-03-07T13:27:40;8.90;;;4.45;;
73452;SDS011;61687;56.232;43.854;2024-03-07T13:30:17;7.50;;;3.42;;
73452;SDS011;61687;56.232;43.854;2024-03-07T13:33:03;7.18;;;3.83;;
73452;SDS011;61687;56.232;43.854;2024-03-07T13:35:29;6.67;;;3.67;;
73452;SDS011;61687;56.232;43.854;2024-03-07T13:37:55;8.43;;;4.25;;
73452;SDS011;61687;56.232;43.854;2024-03-07T13:40:25;8.05;;;3.88;;
73452;SDS011;61687;56.232;43.854;2024-03-07T13:42:55;10.82;;;4.60;;
73452;SDS011;61687;56.232;43.854;2024-03-07T13:45:32;9.00;;;4.30;;
73452;SDS011;61687;56.232;43.854;2024-03-07T13:48:05;9.50;;;4.47;;
73452;SDS011;61687;56.232;43.854;2024-03-07T13:50:33;12.52;;;5.22;;
73452;SDS011;61687;56.232;43.854;2024-03-07T13:53:00;13.13;;;5.20;;
73452;SDS011;61687;56.232;43.854;2024-03-07T14:09:26;10.30;;;4.45;;
73452;SDS011;61687;56.232;43.854;2024-03-07T14:17:58;10.82;;;4.43;;
73452;SDS011;61687;56.232;43.854;2024-03-07T14:31:37;12.00;;;6.15;;
73452;SDS011;61687;56.232;43.854;2024-03-07T14:34:24;16.65;;;7.35;;
73452;SDS011;61687;56.232;43.854;2024-03-07T14:36:57;16.10;;;7.82;;
73452;SDS011;61687;56.232;43.854;2024-03-07T14:39:30;14.27;;;7.00;;
73452;SDS011;61687;56.232;43.854;2024-03-07T14:42:09;16.02;;;6.97;;
73452;SDS011;61687;56.232;43.854;2024-03-07T14:44:40;15.98;;;6.47;;
73452;SDS011;61687;56.232;43.854;2024-03-07T14:47:11;14.52;;;6.20;;
73452;SDS011;61687;56.232;43.854;2024-03-07T14:49:39;15.52;;;6.00;;
73452;SDS011;61687;56.232;43.854;2024-03-07T14:52:06;17.50;;;6.00;;
73452;SDS011;61687;56.232;43.854;2024-03-07T14:54:37;11.35;;;5.13;;
73452;SDS011;61687;56.232;43.854;2024-03-07T14:57:04;24.90;;;5.95;;
73452;SDS011;61687;56.232;43.854;2024-03-07T14:59:31;12.02;;;5.47;;
73452;SDS011;61687;56.232;43.854;2024-03-07T15:01:58;13.45;;;6.40;;
73452;SDS011;61687;56.232;43.854;2024-03-07T15:04:27;16.83;;;7.10;;
73452;SDS011;61687;56.232;43.854;2024-03-07T15:06:59;20.20;;;7.38;;
73452;SDS011;61687;56.232;43.854;2024-03-07T15:09:28;20.05;;;7.95;;
73452;SDS011;61687;56.232;43.854;2024-03-07T15:11:59;18.35;;;7.10;;
73452;SDS011;61687;56.232;43.854;2024-03-07T15:14:25;24.98;;;8.05;;